Time;durP1;ratioP1;P1;durP2;ratioP2;P2;SDS_P1;SDS_P2;PMS_P1;PMS_P2;Temp;Humidity;BMP_temperature;BMP_pressure;BME280_temperature;BME280_humidity;BME280_pressure;Samples;Min_cycle;Max_cycle;Signal;HPM_P1;HPM_P2
2023/06/03 00:01:27;;;;;;;1.73;0.82;;;17.50;85.30;;;;;;5015000;28;20172;-76
2023/06/03 00:03:54;;;;;;;0.60;0.52;;;17.60;84.80;;;;;;5019536;28;20181;-75
2023/06/03 00:06:20;;;;;;;0.80;0.80;;;17.60;85.00;;;;;;5010816;28;20579;-75
2023/06/03 00:08:45;;;;;;;0.80;0.80;;;17.50;86.30;;;;;;5013709;28;20219;-75
2023/06/03 00:11:13;;;;;;;0.98;0.77;;;17.40;86.00;;;;;;5012426;28;20231;-76
2023/06/03 00:13:39;;;;;;;1.10;0.63;;;17.40;85.80;;;;;;5016394;28;20176;-75
2023/06/03 00:16:05;;;;;;;0.90;0.90;;;17.30;86.60;;;;;;5016360;28;20268;-75
2023/06/03 00:18:31;;;;;;;1.00;1.00;;;17.20;86.90;;;;;;5016797;28;20399;-75
2023/06/03 00:20:56;;;;;;;0.90;0.90;;;17.10;87.40;;;;;;5012265;28;20260;-74
2023/06/03 00:23:22;;;;;;;0.88;0.88;;;17.00;87.80;;;;;;5011416;28;20260;-75
2023/06/03 00:25:48;;;;;;;1.55;1.10;;;17.00;87.50;;;;;;5013726;28;20260;-75
2023/06/03 00:28:15;;;;;;;0.95;0.95;;;17.10;86.90;;;;;;5008723;28;20659;-74
2023/06/03 00:30:40;;;;;;;3.00;0.88;;;17.20;86.30;;;;;;5015044;28;20211;-74
2023/06/03 00:33:06;;;;;;;0.80;0.80;;;17.30;86.00;;;;;;5009972;28;20177;-75
2023/06/03 00:35:33;;;;;;;1.50;0.90;;;17.30;85.80;;;;;;5011035;28;20184;-75
2023/06/03 00:37:59;;;;;;;0.93;0.93;;;17.40;85.80;;;;;;5013187;28;20185;-75
2023/06/03 00:40:25;;;;;;;1.10;1.10;;;17.30;86.10;;;;;;5011505;28;20264;-74
2023/06/03 00:42:51;;;;;;;0.90;0.90;;;17.30;86.00;;;;;;5008783;28;20718;-75
2023/06/03 00:45:16;;;;;;;0.90;0.90;;;17.30;86.80;;;;;;5014275;28;20188;-74
2023/06/03 00:47:43;;;;;;;0.77;0.77;;;17.30;87.00;;;;;;5012296;28;20178;-76
2023/06/03 00:50:10;;;;;;;1.20;1.10;;;17.30;86.90;;;;;;5013250;28;20216;-75
2023/06/03 00:52:38;;;;;;;1.13;1.13;;;17.30;87.10;;;;;;5005662;28;20678;-75
2023/06/03 00:55:04;;;;;;;0.90;0.90;;;17.20;89.10;;;;;;5007905;28;20192;-76
2023/06/03 00:57:30;;;;;;;0.90;0.90;;;17.10;89.60;;;;;;5002425;28;20200;-75
2023/06/03 00:59:56;;;;;;;0.77;0.77;;;17.10;89.30;;;;;;5009968;28;20700;-76
2023/06/03 01:02:23;;;;;;;0.73;0.73;;;17.10;89.40;;;;;;5008527;28;20189;-76
2023/06/03 01:04:49;;;;;;;1.13;1.13;;;17.10;89.50;;;;;;5012036;28;20809;-76
2023/06/03 01:07:26;;;;;;;1.08;1.08;;;17.00;89.10;;;;;;5009976;28;20177;-75
2023/06/03 01:10:03;;;;;;;1.17;1.08;;;16.90;89.40;;;;;;5012215;28;20220;-75
2023/06/03 01:12:58;;;;;;;1.08;1.08;;;16.80;89.90;;;;;;5007160;28;20180;-76
2023/06/03 01:15:27;;;;;;;2.63;1.20;;;16.60;90.00;;;;;;5008380;28;20670;-76
2023/06/03 01:17:57;;;;;;;1.20;1.10;;;16.60;90.20;;;;;;5006796;28;20669;-75
2023/06/03 01:20:26;;;;;;;2.05;1.23;;;16.50;90.40;;;;;;5009768;28;20192;-75
2023/06/03 01:22:57;;;;;;;1.50;1.02;;;16.50;90.40;;;;;;5010184;28;20662;-75
2023/06/03 01:25:23;;;;;;;2.22;1.23;;;16.60;89.60;;;;;;5016807;28;20641;-75
2023/06/03 01:27:49;;;;;;;1.02;1.02;;;16.70;88.40;;;;;;5009104;28;20192;-74
2023/06/03 01:30:20;;;;;;;0.80;0.80;;;16.80;88.10;;;;;;5010703;28;20213;-75
2023/06/03 01:32:48;;;;;;;3.42;1.15;;;16.90;88.00;;;;;;5013600;28;20620;-77
2023/06/03 01:35:16;;;;;;;1.25;1.08;;;16.90;88.20;;;;;;5013444;28;20260;-74
2023/06/03 01:37:42;;;;;;;1.27;1.27;;;16.90;88.10;;;;;;5012369;28;20192;-75
2023/06/03 01:40:08;;;;;;;1.10;1.10;;;16.90;87.90;;;;;;5013345;28;20189;-75
2023/06/03 01:42:35;;;;;;;2.22;1.08;;;16.90;87.60;;;;;;5012524;28;20320;-75
2023/06/03 01:45:05;;;;;;;1.48;1.38;;;16.90;88.00;;;;;;5018515;28;20193;-75
2023/06/03 01:47:32;;;;;;;2.38;1.25;;;16.80;87.80;;;;;;5013934;28;20184;-75
2023/06/03 01:49:58;;;;;;;1.10;1.10;;;16.80;88.30;;;;;;5019952;28;20217;-75
2023/06/03 01:52:23;;;;;;;0.88;0.88;;;16.80;88.20;;;;;;5013194;28;20658;-75
2023/06/03 01:54:49;;;;;;;1.20;1.20;;;16.80;88.50;;;;;;5011176;28;20242;-75
2023/06/03 01:57:16;;;;;;;2.25;1.25;;;16.70;88.40;;;;;;5013900;28;20173;-75
2023/06/03 01:59:42;;;;;;;0.88;0.88;;;16.70;89.20;;;;;;5013949;28;20188;-75
2023/06/03 02:02:07;;;;;;;1.00;1.00;;;16.70;89.20;;;;;;5009909;28;20199;-75
2023/06/03 02:04:33;;;;;;;0.60;0.60;;;16.60;89.30;;;;;;5011408;28;20809;-75
2023/06/03 02:07:00;;;;;;;0.73;0.73;;;16.60;89.30;;;;;;5018558;28;20654;-75
2023/06/03 02:09:27;;;;;;;1.02;0.70;;;16.60;89.70;;;;;;5008747;28;20232;-75
2023/06/03 02:11:57;;;;;;;0.80;0.80;;;16.50;89.50;;;;;;5012389;28;20185;-75
2023/06/03 02:14:30;;;;;;;0.60;0.60;;;16.50;89.70;;;;;;5016803;28;20189;-75
2023/06/03 02:16:56;;;;;;;1.00;1.00;;;16.40;90.00;;;;;;5012465;28;20185;-75
2023/06/03 02:19:25;;;;;;;0.70;0.70;;;16.40;90.40;;;;;;5011324;28;20180;-74
2023/06/03 02:21:52;;;;;;;0.73;0.63;;;16.30;90.40;;;;;;5014269;28;20625;-75
2023/06/03 02:24:19;;;;;;;0.85;0.85;;;16.20;91.70;;;;;;5012262;28;20181;-75
2023/06/03 02:26:52;;;;;;;0.80;0.80;;;16.10;92.00;;;;;;5012384;28;20212;-74
2023/06/03 02:29:22;;;;;;;1.00;1.00;;;16.10;91.80;;;;;;5011972;28;20231;-75
2023/06/03 02:31:48;;;;;;;0.80;0.80;;;16.10;91.20;;;;;;5012404;28;20564;-76
2023/06/03 02:34:14;;;;;;;0.75;0.75;;;16.10;91.10;;;;;;5012779;28;20170;-75
2023/06/03 02:36:40;;;;;;;0.70;0.70;;;16.00;92.90;;;;;;5012884;28;20192;-75
2023/06/03 02:39:09;;;;;;;0.80;0.80;;;16.00;92.40;;;;;;5014388;28;20194;-75
2023/06/03 02:41:35;;;;;;;0.80;0.80;;;16.00;91.70;;;;;;5017022;28;20168;-75
2023/06/03 02:44:01;;;;;;;0.80;0.80;;;16.00;91.50;;;;;;5017402;28;20590;-76
2023/06/03 02:46:27;;;;;;;0.90;0.90;;;16.10;91.60;;;;;;5005077;28;20549;-76
2023/06/03 02:48:53;;;;;;;0.70;0.70;;;16.00;92.30;;;;;;5014879;28;20246;-75
2023/06/03 02:51:18;;;;;;;1.05;1.00;;;16.00;92.10;;;;;;5010906;28;20244;-75
2023/06/03 02:53:44;;;;;;;0.55;0.55;;;16.10;92.10;;;;;;5012633;28;20255;-75
2023/06/03 02:56:09;;;;;;;0.85;0.75;;;16.10;92.10;;;;;;5015766;28;20180;-74
2023/06/03 02:58:35;;;;;;;0.63;0.63;;;16.10;92.00;;;;;;5011117;28;20335;-75
2023/06/03 03:01:01;;;;;;;0.70;0.70;;;16.10;92.20;;;;;;5007784;28;20687;-74
2023/06/03 03:03:26;;;;;;;1.23;0.80;;;16.20;92.10;;;;;;5015144;28;20271;-74
2023/06/03 03:05:54;;;;;;;1.38;0.85;;;16.20;92.00;;;;;;5021202;28;20181;-75
2023/06/03 03:08:22;;;;;;;0.70;0.70;;;16.20;92.00;;;;;;5015792;28;20728;-75
2023/06/03 03:10:49;;;;;;;0.88;0.85;;;16.20;91.80;;;;;;5010322;28;20205;-74
2023/06/03 03:13:14;;;;;;;0.85;0.85;;;16.20;92.00;;;;;;5010396;28;20192;-76
2023/06/03 03:15:40;;;;;;;1.10;1.10;;;16.20;92.20;;;;;;5010678;28;20185;-75
2023/06/03 03:18:06;;;;;;;2.28;0.82;;;16.30;92.10;;;;;;5010229;28;20188;-76
2023/06/03 03:20:31;;;;;;;0.70;0.70;;;16.30;92.20;;;;;;5004213;28;20181;-75
2023/06/03 03:22:58;;;;;;;2.47;0.98;;;16.30;92.00;;;;;;5009528;28;20185;-76
2023/06/03 03:25:24;;;;;;;0.82;0.80;;;16.30;92.30;;;;;;5011707;28;20192;-76
2023/06/03 03:27:50;;;;;;;1.13;0.73;;;16.40;92.00;;;;;;5013905;28;20188;-76
2023/06/03 03:30:36;;;;;;;1.42;1.23;;;16.40;91.90;;;;;;5010626;28;20267;-77
2023/06/03 03:33:02;;;;;;;1.50;1.15;;;16.40;91.40;;;;;;5007956;28;20629;-75
2023/06/03 03:35:27;;;;;;;1.42;0.80;;;16.50;91.60;;;;;;5009107;28;20177;-75
2023/06/03 03:38:02;;;;;;;0.98;0.98;;;16.50;91.90;;;;;;5010908;28;20180;-75
2023/06/03 03:40:30;;;;;;;0.75;0.75;;;16.50;91.80;;;;;;5017533;28;20184;-75
2023/06/03 03:42:56;;;;;;;0.70;0.70;;;16.50;91.70;;;;;;5007312;28;20185;-76
2023/06/03 03:45:25;;;;;;;0.90;0.82;;;16.50;91.70;;;;;;5016082;28;20177;-75
2023/06/03 03:47:52;;;;;;;0.90;0.90;;;16.50;91.90;;;;;;5014083;28;20180;-77
2023/06/03 03:50:46;;;;;;;1.00;1.00;;;16.60;92.00;;;;;;5007392;28;20209;-75
2023/06/03 03:53:18;;;;;;;1.73;1.17;;;16.60;91.60;;;;;;5007325;28;20185;-75
2023/06/03 03:55:51;;;;;;;0.98;0.98;;;16.60;91.80;;;;;;5008898;28;20676;-77
2023/06/03 03:58:39;;;;;;;0.80;0.80;;;16.60;91.70;;;;;;5012027;28;20635;-76
2023/06/03 04:01:09;;;;;;;1.90;1.08;;;16.70;91.40;;;;;;5018125;28;20184;-75
2023/06/03 04:03:40;;;;;;;1.38;1.20;;;16.70;91.70;;;;;;5011175;28;20258;-75
2023/06/03 04:06:08;;;;;;;0.95;0.95;;;16.70;91.30;;;;;;5016733;28;20185;-76
2023/06/03 04:08:40;;;;;;;1.05;1.05;;;16.70;91.30;;;;;;5013133;28;20650;-76
2023/06/03 04:11:08;;;;;;;2.15;1.35;;;16.70;91.30;;;;;;5009896;28;20267;-77
2023/06/03 04:13:42;;;;;;;1.02;1.02;;;16.70;91.20;;;;;;5008205;28;20173;-74
2023/06/03 04:16:27;;;;;;;2.70;1.50;;;16.70;91.80;;;;;;5011531;28;20173;-77
2023/06/03 04:18:53;;;;;;;0.95;0.95;;;16.50;93.20;;;;;;5009547;28;20183;-76
2023/06/03 04:21:19;;;;;;;1.52;1.52;;;16.40;93.20;;;;;;5011552;28;20603;-78
2023/06/03 04:23:46;;;;;;;1.35;1.27;;;16.50;92.30;;;;;;5012604;28;20689;-74
2023/06/03 04:26:15;;;;;;;1.52;1.52;;;16.50;92.60;;;;;;5006625;28;20189;-75
2023/06/03 04:28:40;;;;;;;0.90;0.90;;;16.50;92.40;;;;;;5008926;28;20193;-75
2023/06/03 04:31:19;;;;;;;1.23;1.13;;;16.60;92.10;;;;;;5070123;27;20647;-76
2023/06/03 04:33:45;;;;;;;1.13;1.13;;;16.60;92.30;;;;;;5066405;28;20625;-75
2023/06/03 04:36:10;;;;;;;2.38;1.65;;;16.70;92.50;;;;;;5067317;28;20771;-75
2023/06/03 04:38:36;;;;;;;2.85;1.25;;;16.70;92.60;;;;;;5070280;28;20253;-75
2023/06/03 04:41:02;;;;;;;1.40;1.33;;;16.80;92.60;;;;;;5069532;28;20567;-75
2023/06/03 04:43:27;;;;;;;0.90;0.90;;;16.90;92.00;;;;;;5070034;28;20183;-76
2023/06/03 04:45:54;;;;;;;1.10;1.08;;;16.90;91.90;;;;;;5062263;28;20180;-74
2023/06/03 04:48:22;;;;;;;1.20;1.20;;;16.90;91.50;;;;;;5060138;28;20237;-76
2023/06/03 04:50:49;;;;;;;1.52;1.42;;;16.90;91.50;;;;;;5066127;28;20622;-75
2023/06/03 04:53:15;;;;;;;1.73;1.30;;;17.00;91.40;;;;;;5064145;28;20210;-74
2023/06/03 04:55:45;;;;;;;1.45;1.45;;;17.00;91.40;;;;;;5064373;28;20184;-74
2023/06/03 04:58:11;;;;;;;1.65;1.52;;;17.00;91.20;;;;;;5067799;28;20187;-75
2023/06/03 05:00:40;;;;;;;2.38;1.75;;;17.10;90.60;;;;;;5068900;28;20571;-74
2023/06/03 05:03:08;;;;;;;1.40;0.95;;;17.10;91.00;;;;;;5069500;28;20683;-74
2023/06/03 05:05:35;;;;;;;1.98;1.38;;;17.00;91.00;;;;;;5067261;28;20194;-75
2023/06/03 05:08:01;;;;;;;1.40;1.30;;;17.00;91.30;;;;;;5070190;28;20678;-74
2023/06/03 05:10:27;;;;;;;1.52;1.52;;;17.10;91.00;;;;;;5070417;28;20202;-74
2023/06/03 05:12:53;;;;;;;3.88;1.52;;;17.20;91.20;;;;;;5065158;28;20194;-74
2023/06/03 05:15:19;;;;;;;2.00;1.90;;;17.30;91.10;;;;;;5067503;28;20240;-75
2023/06/03 05:17:45;;;;;;;1.45;1.45;;;17.30;90.50;;;;;;5068072;28;20176;-75
2023/06/03 05:20:11;;;;;;;3.20;1.75;;;17.50;90.40;;;;;;5068151;28;20178;-74
2023/06/03 05:22:37;;;;;;;1.52;1.52;;;17.50;90.60;;;;;;5061762;28;20735;-75
2023/06/03 05:25:06;;;;;;;2.63;2.40;;;17.30;90.50;;;;;;5068245;28;20214;-75
2023/06/03 05:27:32;;;;;;;1.60;1.60;;;17.30;90.70;;;;;;5065397;28;20191;-74
2023/06/03 05:29:58;;;;;;;2.25;1.10;;;17.30;90.90;;;;;;5064958;28;20842;-75
2023/06/03 05:32:24;;;;;;;2.40;1.52;;;17.30;90.20;;;;;;5065696;28;20249;-74
2023/06/03 05:34:50;;;;;;;1.48;1.48;;;17.30;90.70;;;;;;5093592;28;20179;-74
2023/06/03 05:37:15;;;;;;;1.70;1.60;;;17.40;90.80;;;;;;5064825;28;20668;-74
2023/06/03 05:39:41;;;;;;;3.83;1.88;;;17.40;90.40;;;;;;5065284;28;20190;-76
2023/06/03 05:42:07;;;;;;;1.85;1.77;;;17.40;90.10;;;;;;5055342;28;20278;-76
2023/06/03 05:44:32;;;;;;;2.25;2.15;;;17.40;90.40;;;;;;5055329;28;20172;-75
2023/06/03 05:46:58;;;;;;;1.70;1.65;;;17.50;90.50;;;;;;5053469;28;20236;-75
2023/06/03 05:49:24;;;;;;;1.98;1.80;;;17.60;90.30;;;;;;5045822;28;20269;-76
2023/06/03 05:51:50;;;;;;;1.50;1.48;;;17.70;90.20;;;;;;5050409;28;20665;-75
2023/06/03 05:54:15;;;;;;;1.23;1.23;;;17.80;89.70;;;;;;5052758;28;20186;-75
2023/06/03 05:56:41;;;;;;;1.40;1.38;;;17.80;88.80;;;;;;5052444;28;20203;-75
2023/06/03 05:59:07;;;;;;;3.25;1.15;;;18.00;89.00;;;;;;5051148;28;20561;-77
2023/06/03 06:01:33;;;;;;;1.15;1.15;;;18.20;89.10;;;;;;5054225;28;20245;-76
2023/06/03 06:03:59;;;;;;;1.95;1.73;;;18.30;88.00;;;;;;5047865;28;20582;-75
2023/06/03 06:06:25;;;;;;;1.48;1.38;;;18.40;88.10;;;;;;5050586;28;20258;-75
2023/06/03 06:08:51;;;;;;;1.23;1.23;;;18.40;87.90;;;;;;5050102;28;20337;-75
2023/06/03 06:11:17;;;;;;;1.48;1.48;;;18.50;87.80;;;;;;5052217;28;20219;-74
2023/06/03 06:13:42;;;;;;;1.60;1.60;;;18.50;86.00;;;;;;5052489;28;20180;-75
2023/06/03 06:16:08;;;;;;;1.77;1.60;;;18.50;86.60;;;;;;5043698;28;20551;-75
2023/06/03 06:18:34;;;;;;;1.60;1.60;;;18.60;86.70;;;;;;5042249;28;20180;-76
2023/06/03 06:21:01;;;;;;;1.50;1.40;;;18.60;86.20;;;;;;5043201;28;20183;-74
2023/06/03 06:23:26;;;;;;;1.83;1.15;;;18.80;86.70;;;;;;5048334;28;20570;-75
2023/06/03 06:25:53;;;;;;;2.55;1.50;;;18.90;87.00;;;;;;5047429;28;20187;-75
2023/06/03 06:28:21;;;;;;;1.13;1.13;;;19.10;87.20;;;;;;5044981;28;20207;-76
2023/06/03 06:30:47;;;;;;;1.58;1.58;;;19.20;87.40;;;;;;5049450;28;20219;-75
2023/06/03 06:33:16;;;;;;;8.43;1.65;;;19.40;86.20;;;;;;5049663;28;20823;-75
2023/06/03 06:35:43;;;;;;;4.22;1.30;;;19.50;84.00;;;;;;5041915;28;20184;-76
2023/06/03 06:38:10;;;;;;;1.65;1.38;;;19.60;84.30;;;;;;5045199;28;20198;-76
2023/06/03 06:40:37;;;;;;;2.70;1.45;;;19.80;84.80;;;;;;5044401;28;20176;-75
2023/06/03 06:43:04;;;;;;;1.17;1.17;;;20.00;84.70;;;;;;5046223;28;20187;-76
2023/06/03 06:45:33;;;;;;;2.92;1.50;;;20.10;82.00;;;;;;5046510;28;20590;-75
2023/06/03 06:48:05;;;;;;;1.30;1.27;;;20.20;80.70;;;;;;5046932;28;20172;-75
2023/06/03 06:50:47;;;;;;;1.77;1.67;;;20.30;80.70;;;;;;5044347;28;20200;-75
2023/06/03 06:53:14;;;;;;;1.50;1.40;;;20.50;80.10;;;;;;5041837;28;20187;-76
2023/06/03 06:55:56;;;;;;;2.17;1.63;;;20.60;80.40;;;;;;5043698;28;20571;-76
2023/06/03 06:58:25;;;;;;;1.60;1.58;;;20.70;80.60;;;;;;5047924;28;20187;-76
2023/06/03 07:00:51;;;;;;;1.58;1.50;;;20.90;80.70;;;;;;5041047;28;20270;-76
2023/06/03 07:03:18;;;;;;;1.65;1.50;;;21.10;81.30;;;;;;5042908;28;20325;-76
2023/06/03 07:05:46;;;;;;;2.75;1.45;;;21.40;80.10;;;;;;5047913;28;20203;-74
2023/06/03 07:08:12;;;;;;;2.67;1.92;;;21.40;80.10;;;;;;5046924;28;20183;-75
2023/06/03 07:10:39;;;;;;;3.25;1.75;;;21.60;78.90;;;;;;5039466;28;20211;-75
2023/06/03 07:13:08;;;;;;;2.00;1.40;;;21.80;78.60;;;;;;5043076;28;20184;-75
2023/06/03 07:15:37;;;;;;;1.40;1.40;;;22.00;77.00;;;;;;5048281;28;20180;-76
2023/06/03 07:18:03;;;;;;;2.15;1.67;;;22.10;75.50;;;;;;5050694;28;20190;-76
2023/06/03 07:20:43;;;;;;;1.95;1.95;;;22.20;75.70;;;;;;5052599;28;20183;-75
2023/06/03 07:23:25;;;;;;;1.73;1.63;;;22.20;76.40;;;;;;5047320;28;20586;-76
2023/06/03 07:25:52;;;;;;;1.50;1.40;;;22.40;75.10;;;;;;5046965;28;20652;-76
2023/06/03 07:28:20;;;;;;;2.17;1.50;;;22.40;74.50;;;;;;5048029;28;20180;-76
2023/06/03 07:30:47;;;;;;;4.47;1.42;;;22.40;73.60;;;;;;5046518;28;20222;-76
2023/06/03 07:33:37;;;;;;;1.73;1.63;;;22.40;73.60;;;;;;5049685;28;20198;-75
2023/06/03 07:36:03;;;;;;;2.47;2.30;;;22.50;74.60;;;;;;5044518;28;20202;-76
2023/06/03 07:38:35;;;;;;;1.77;1.77;;;22.50;74.00;;;;;;5047833;28;20320;-75
2023/06/03 07:41:00;;;;;;;2.88;2.67;;;22.60;73.90;;;;;;5039788;28;20222;-77
2023/06/03 07:43:28;;;;;;;2.58;2.38;;;22.70;74.80;;;;;;5047879;28;20259;-78
2023/06/03 07:45:53;;;;;;;2.08;2.05;;;22.70;73.80;;;;;;5048484;28;20194;-77
2023/06/03 07:48:19;;;;;;;1.67;1.55;;;22.80;74.50;;;;;;5048325;28;20184;-78
2023/06/03 07:50:47;;;;;;;1.55;1.40;;;22.90;74.40;;;;;;5045442;28;20290;-75
2023/06/03 07:53:22;;;;;;;1.42;1.42;;;22.90;74.60;;;;;;5045820;28;20194;-75
2023/06/03 07:55:48;;;;;;;1.95;1.65;;;23.00;74.70;;;;;;5045397;28;20258;-75
2023/06/03 07:58:15;;;;;;;1.30;1.30;;;23.10;74.80;;;;;;5044608;28;20183;-74
2023/06/03 08:00:48;;;;;;;1.38;1.38;;;23.20;73.50;;;;;;5044817;28;20180;-75
2023/06/03 08:03:25;;;;;;;1.52;1.42;;;23.10;73.20;;;;;;5048258;28;20183;-74
2023/06/03 08:05:51;;;;;;;1.30;1.30;;;22.80;73.20;;;;;;5062664;28;20195;-75
2023/06/03 08:08:23;;;;;;;1.45;1.45;;;22.70;74.10;;;;;;5057817;28;20755;-74
2023/06/03 08:10:49;;;;;;;1.40;1.30;;;22.80;74.30;;;;;;5046353;28;20322;-75
2023/06/03 08:13:18;;;;;;;1.23;1.23;;;22.90;74.60;;;;;;5046599;28;21475;-77
2023/06/03 08:15:43;;;;;;;1.35;1.35;;;23.00;74.30;;;;;;5045050;28;20188;-77
2023/06/03 08:18:20;;;;;;;1.20;1.20;;;23.10;74.30;;;;;;5045914;28;20186;-76
2023/06/03 08:20:45;;;;;;;1.23;1.20;;;23.20;73.90;;;;;;5049186;28;20191;-75
2023/06/03 08:23:11;;;;;;;1.58;1.55;;;23.20;74.50;;;;;;5047576;28;20274;-77
2023/06/03 08:25:37;;;;;;;1.08;1.08;;;23.30;74.60;;;;;;5043153;28;20187;-77
2023/06/03 08:28:02;;;;;;;1.15;1.15;;;23.40;74.30;;;;;;5047456;28;20172;-77
2023/06/03 08:30:28;;;;;;;1.17;1.10;;;23.60;73.40;;;;;;5048382;28;20207;-77
2023/06/03 08:32:55;;;;;;;1.15;1.15;;;23.70;73.10;;;;;;5050308;28;20657;-77
2023/06/03 08:35:21;;;;;;;1.30;1.27;;;23.80;73.40;;;;;;5046381;28;20787;-77
2023/06/03 08:37:47;;;;;;;1.20;1.17;;;23.90;73.50;;;;;;5042378;28;20262;-77
2023/06/03 08:40:15;;;;;;;1.00;1.00;;;24.00;73.00;;;;;;5047995;28;20168;-76
2023/06/03 08:42:43;;;;;;;1.10;1.10;;;24.10;72.20;;;;;;5048736;28;20176;-76
2023/06/03 08:45:16;;;;;;;0.95;0.95;;;24.10;71.70;;;;;;5075810;28;20198;-77
2023/06/03 08:48:06;;;;;;;0.90;0.90;;;24.20;73.00;;;;;;5046018;28;20592;-76
2023/06/03 08:50:36;;;;;;;0.98;0.98;;;24.20;72.10;;;;;;5048467;28;20199;-76
2023/06/03 08:53:08;;;;;;;0.90;0.90;;;24.30;71.60;;;;;;5045725;28;20188;-76
2023/06/03 08:55:36;;;;;;;1.42;0.80;;;24.30;70.20;;;;;;5042893;28;20616;-76
2023/06/03 08:58:18;;;;;;;0.95;0.90;;;24.40;69.90;;;;;;5042391;28;20606;-75
2023/06/03 09:00:45;;;;;;;0.93;0.93;;;24.50;70.40;;;;;;5049410;28;20190;-75
2023/06/03 09:03:12;;;;;;;0.90;0.90;;;24.60;69.30;;;;;;5045636;28;20190;-75
2023/06/03 09:05:38;;;;;;;1.15;1.15;;;24.70;69.30;;;;;;5049195;28;20578;-75
2023/06/03 09:08:05;;;;;;;0.98;0.98;;;24.80;68.70;;;;;;5046594;28;20641;-75
2023/06/03 09:10:32;;;;;;;1.02;1.02;;;24.80;69.20;;;;;;5047803;28;20229;-75
2023/06/03 09:13:01;;;;;;;0.70;0.70;;;24.90;69.30;;;;;;5046392;28;20192;-75
2023/06/03 09:15:29;;;;;;;1.17;1.08;;;25.00;69.20;;;;;;5045415;28;20673;-75
2023/06/03 09:17:55;;;;;;;0.90;0.90;;;25.20;68.30;;;;;;5048822;28;20815;-76
2023/06/03 09:20:20;;;;;;;1.00;1.00;;;25.20;67.10;;;;;;5050392;28;20263;-75
2023/06/03 09:22:46;;;;;;;0.80;0.80;;;25.20;66.80;;;;;;5046270;28;20262;-76
2023/06/03 09:25:13;;;;;;;1.75;0.70;;;25.10;68.30;;;;;;5050983;28;20279;-75
2023/06/03 09:27:40;;;;;;;0.75;0.75;;;25.10;68.80;;;;;;5051978;28;20688;-75
2023/06/03 09:30:06;;;;;;;1.05;0.98;;;25.20;69.70;;;;;;5058926;28;20689;-76
2023/06/03 09:32:37;;;;;;;1.25;1.25;;;25.30;68.10;;;;;;5060967;28;21086;-75
2023/06/03 09:35:07;;;;;;;1.05;0.98;;;25.40;67.80;;;;;;5060056;28;20250;-76
2023/06/03 09:37:33;;;;;;;1.95;1.15;;;25.40;67.20;;;;;;5057893;28;20203;-75
2023/06/03 09:40:00;;;;;;;2.15;0.82;;;25.40;65.50;;;;;;5059552;28;20179;-76
2023/06/03 09:42:45;;;;;;;1.02;1.02;;;25.50;65.60;;;;;;5058492;28;20184;-76
2023/06/03 09:45:30;;;;;;;1.10;0.93;;;25.60;66.10;;;;;;5051429;28;20191;-76
2023/06/03 09:47:56;;;;;;;2.92;1.10;;;25.70;64.80;;;;;;5059462;28;20182;-77
2023/06/03 09:50:24;;;;;;;0.95;0.95;;;25.80;65.50;;;;;;5056394;28;20209;-77
2023/06/03 09:52:49;;;;;;;1.08;1.05;;;25.90;65.30;;;;;;5073184;28;20184;-77
2023/06/03 09:55:17;;;;;;;1.25;1.00;;;26.00;65.90;;;;;;5059676;28;20648;-77
2023/06/03 09:58:03;;;;;;;0.90;0.90;;;26.10;64.90;;;;;;5058898;28;20675;-77
2023/06/03 10:00:46;;;;;;;1.15;0.70;;;26.10;63.30;;;;;;5057163;28;20183;-76
2023/06/03 10:03:11;;;;;;;1.40;0.68;;;26.20;62.40;;;;;;5057909;28;20699;-76
2023/06/03 10:05:38;;;;;;;0.63;0.63;;;26.40;62.50;;;;;;5054531;28;20183;-77
2023/06/03 10:08:04;;;;;;;0.77;0.77;;;26.50;62.40;;;;;;5056801;28;20278;-79
2023/06/03 10:10:31;;;;;;;0.65;0.65;;;26.80;62.60;;;;;;5054876;28;20275;-78
2023/06/03 10:12:57;;;;;;;1.95;0.70;;;26.90;63.80;;;;;;5055969;28;20179;-78
2023/06/03 10:15:37;;;;;;;1.20;0.63;;;26.90;62.90;;;;;;5056368;28;20661;-77
2023/06/03 10:18:04;;;;;;;0.85;0.85;;;27.00;61.60;;;;;;5049055;28;20673;-77
2023/06/03 10:20:38;;;;;;;0.88;0.88;;;27.00;61.30;;;;;;5054559;28;20684;-77
2023/06/03 10:23:05;;;;;;;0.95;0.95;;;27.10;62.30;;;;;;5057604;28;20754;-77
2023/06/03 10:25:36;;;;;;;0.82;0.60;;;27.30;64.00;;;;;;5071120;28;20186;-77
2023/06/03 10:28:03;;;;;;;0.60;0.60;;;27.60;61.80;;;;;;5058046;28;20201;-77
2023/06/03 10:30:30;;;;;;;0.65;0.65;;;27.90;61.90;;;;;;5056394;28;20385;-77
2023/06/03 10:33:03;;;;;;;0.75;0.75;;;28.30;61.40;;;;;;5057747;28;20269;-78
2023/06/03 10:35:31;;;;;;;1.40;0.80;;;28.70;59.00;;;;;;5058324;28;20176;-78
2023/06/03 10:37:58;;;;;;;0.90;0.85;;;29.20;56.80;;;;;;5055650;28;20188;-78
2023/06/03 10:40:24;;;;;;;1.95;0.80;;;29.40;57.30;;;;;;5057864;28;20202;-78
2023/06/03 10:42:54;;;;;;;0.88;0.88;;;29.70;59.40;;;;;;5055400;28;20178;-77
2023/06/03 10:45:20;;;;;;;0.90;0.90;;;30.20;58.20;;;;;;5053077;28;20185;-78
2023/06/03 10:47:49;;;;;;;0.80;0.80;;;30.60;55.20;;;;;;5054410;28;20266;-77
2023/06/03 10:50:28;;;;;;;1.20;0.80;;;30.90;54.90;;;;;;5052283;28;20636;-77
2023/06/03 10:53:28;;;;;;;0.77;0.77;;;30.90;56.80;;;;;;5052936;28;20182;-77
2023/06/03 10:56:26;;;;;;;0.93;0.93;;;30.50;54.30;;;;;;5047847;28;20187;-77
2023/06/03 10:59:16;;;;;;;1.55;0.90;;;30.30;55.20;;;;;;5032862;28;20209;-77
2023/06/03 11:02:02;;;;;;;0.93;0.93;;;30.40;57.60;;;;;;5055550;28;20616;-77
2023/06/03 11:04:35;;;;;;;1.30;1.20;;;30.50;55.60;;;;;;5051251;28;20195;-78
2023/06/03 11:07:02;;;;;;;1.05;1.05;;;30.70;56.70;;;;;;5050665;28;20176;-79
2023/06/03 11:09:39;;;;;;;1.95;0.73;;;31.00;55.90;;;;;;5049448;28;20286;-79
2023/06/03 11:12:14;;;;;;;0.82;0.82;;;31.30;53.90;;;;;;5054847;28;20190;-80
2023/06/03 11:14:48;;;;;;;0.85;0.85;;;31.50;56.90;;;;;;5053097;28;20214;-77
2023/06/03 11:17:15;;;;;;;0.95;0.95;;;31.60;53.00;;;;;;5051217;28;20269;-77
2023/06/03 11:19:44;;;;;;;1.42;1.25;;;31.80;52.30;;;;;;5048943;28;20284;-77
2023/06/03 11:22:12;;;;;;;0.93;0.93;;;31.90;52.50;;;;;;5052062;28;20820;-77
2023/06/03 11:24:37;;;;;;;1.00;1.00;;;32.10;53.20;;;;;;5049495;28;20183;-77
2023/06/03 11:27:24;;;;;;;1.20;1.20;;;32.20;54.50;;;;;;5050311;28;20210;-77
2023/06/03 11:29:51;;;;;;;0.90;0.90;;;32.10;54.10;;;;;;5075049;28;20610;-77
2023/06/03 11:32:21;;;;;;;3.35;1.30;;;32.00;54.50;;;;;;5052590;28;20281;-78
2023/06/03 11:34:49;;;;;;;0.98;0.98;;;32.00;53.50;;;;;;5052231;28;20770;-77
2023/06/03 11:37:17;;;;;;;3.03;1.10;;;31.90;59.60;;;;;;5056696;28;20217;-78
2023/06/03 11:40:05;;;;;;;1.30;1.30;;;31.60;56.10;;;;;;5053977;28;20564;-78
2023/06/03 11:42:51;;;;;;;1.08;1.08;;;31.40;55.10;;;;;;5047445;28;20186;-77
2023/06/03 11:45:20;;;;;;;1.23;1.23;;;31.20;55.40;;;;;;5054844;28;20182;-77
2023/06/03 11:47:49;;;;;;;0.85;0.85;;;30.90;56.80;;;;;;5051131;28;20186;-77
2023/06/03 11:50:16;;;;;;;1.40;1.40;;;30.70;57.20;;;;;;5049473;28;20245;-78
2023/06/03 11:52:42;;;;;;;1.20;1.20;;;30.50;56.60;;;;;;5049382;28;20237;-77
2023/06/03 11:55:08;;;;;;;1.33;1.30;;;30.40;57.50;;;;;;5054165;28;20236;-77
2023/06/03 11:57:34;;;;;;;1.15;1.15;;;30.30;56.90;;;;;;5051264;28;20801;-77
2023/06/03 12:00:07;;;;;;;1.40;1.30;;;30.20;55.50;;;;;;5046861;28;20176;-77
2023/06/03 12:02:45;;;;;;;1.67;1.55;;;30.10;56.60;;;;;;5056164;28;20293;-77
2023/06/03 12:05:12;;;;;;;1.08;1.08;;;30.10;55.00;;;;;;5047177;28;20655;-77
2023/06/03 12:07:38;;;;;;;2.45;1.35;;;30.20;57.20;;;;;;5052456;28;20181;-76
2023/06/03 12:10:04;;;;;;;0.90;0.90;;;30.50;59.10;;;;;;5054840;28;20203;-77
2023/06/03 12:12:30;;;;;;;1.17;1.17;;;30.60;57.10;;;;;;5056568;28;20182;-77
2023/06/03 12:15:07;;;;;;;1.83;1.30;;;30.60;55.60;;;;;;5045260;28;20187;-77
2023/06/03 12:17:33;;;;;;;1.40;1.40;;;30.60;56.50;;;;;;5050086;28;20235;-77
2023/06/03 12:20:02;;;;;;;2.20;2.10;;;30.60;58.70;;;;;;5049786;28;20176;-77
2023/06/03 12:22:28;;;;;;;2.95;1.92;;;30.50;59.10;;;;;;5053038;28;20321;-78
2023/06/03 12:24:54;;;;;;;1.58;1.58;;;30.20;59.50;;;;;;5050572;28;20224;-77
2023/06/03 12:27:21;;;;;;;1.80;1.80;;;29.90;59.90;;;;;;5047787;28;20790;-79
2023/06/03 12:29:59;;;;;;;2.22;2.13;;;29.70;59.20;;;;;;5050164;28;20206;-77
2023/06/03 12:32:28;;;;;;;2.05;1.95;;;29.30;62.60;;;;;;5050413;28;20286;-79
2023/06/03 12:34:54;;;;;;;1.60;1.60;;;28.90;61.00;;;;;;5051733;28;20184;-78
2023/06/03 12:37:28;;;;;;;1.85;1.50;;;28.60;59.00;;;;;;5050225;28;20185;-78
2023/06/03 12:39:54;;;;;;;1.95;1.65;;;28.40;60.20;;;;;;5053100;28;20176;-77
2023/06/03 12:42:33;;;;;;;2.28;1.80;;;28.10;61.60;;;;;;5046589;28;20190;-77
2023/06/03 12:44:59;;;;;;;3.90;2.08;;;28.00;61.10;;;;;;5051796;28;20179;-77
2023/06/03 12:47:24;;;;;;;2.42;2.33;;;27.70;63.30;;;;;;5052126;28;20266;-77
2023/06/03 12:50:07;;;;;;;2.35;2.25;;;27.50;64.60;;;;;;5051000;28;20214;-77
2023/06/03 12:52:36;;;;;;;2.65;2.55;;;27.40;65.20;;;;;;5052807;28;20262;-78
2023/06/03 12:55:03;;;;;;;3.15;2.65;;;27.20;65.90;;;;;;5055709;28;20189;-79
2023/06/03 12:57:31;;;;;;;3.28;2.75;;;27.00;67.20;;;;;;5056873;28;20167;-77